createdAt,value
2018-05-27T00:03:32.436Z,6.03
2018-05-27T00:08:34.940Z,6.70
2018-05-27T00:13:37.440Z,6.80
2018-05-27T00:18:39.935Z,6.30
2018-05-27T00:23:42.440Z,7.17
2018-05-27T00:28:44.940Z,6.73
2018-05-27T00:33:47.436Z,6.30
2018-05-27T00:38:49.940Z,7.40
2018-05-27T00:43:52.444Z,5.97
2018-05-27T00:48:55.701Z,6.43
2018-05-27T00:54:00.007Z,6.70
2018-05-27T00:59:02.508Z,6.70
2018-05-27T01:04:05.004Z,6.60
2018-05-27T01:09:07.504Z,6.50
2018-05-27T01:14:10.013Z,6.23
2018-05-27T01:19:12.516Z,7.30
2018-05-27T01:24:15.097Z,7.30
2018-05-27T01:29:17.600Z,6.30
2018-05-27T01:34:20.103Z,6.60
2018-05-27T01:39:22.612Z,7.30
2018-05-27T01:44:25.113Z,7.00
2018-05-27T01:49:27.616Z,6.93
2018-05-27T01:54:30.872Z,7.43
2018-05-27T01:59:33.359Z,7.30
2018-05-27T02:04:35.868Z,6.93
2018-05-27T02:09:38.368Z,6.77
2018-05-27T02:14:40.868Z,7.10
2018-05-27T02:19:43.376Z,7.77
2018-05-27T02:24:45.871Z,7.17
2018-05-27T02:29:48.375Z,7.27
2018-05-27T02:34:51.637Z,8.17
2018-05-27T02:39:54.138Z,7.87
2018-05-27T02:44:56.648Z,7.40
2018-05-27T02:49:59.148Z,6.40
2018-05-27T02:55:01.661Z,7.07
2018-05-27T03:00:04.929Z,7.67
2018-05-27T03:05:07.423Z,7.27
2018-05-27T03:10:09.919Z,6.70
2018-05-27T03:15:12.414Z,6.83
2018-05-27T03:20:14.908Z,7.43
2018-05-27T03:25:17.469Z,7.70
2018-05-27T03:30:19.923Z,7.53
2018-05-27T03:35:23.183Z,7.37
2018-05-27T03:40:25.697Z,7.30
2018-05-27T03:45:28.191Z,7.40
2018-05-27T03:50:30.696Z,7.80
2018-05-27T03:55:33.188Z,7.33
2018-05-27T04:00:35.700Z,7.83
2018-05-27T04:05:50.775Z,7.67
2018-05-27T04:10:53.267Z,8.03
2018-05-27T04:15:56.624Z,6.57
2018-05-27T04:20:59.124Z,7.53
2018-05-27T04:26:01.617Z,7.10
2018-05-27T04:31:04.122Z,7.30
2018-05-27T04:36:06.636Z,8.30
2018-05-27T04:41:09.135Z,7.43
2018-05-27T04:46:11.632Z,7.07
2018-05-27T04:51:14.137Z,7.23
2018-05-27T04:56:17.392Z,7.53
2018-05-27T05:01:19.883Z,7.23
2018-05-27T05:06:22.392Z,7.20
2018-05-27T05:11:24.883Z,7.80
2018-05-27T05:16:27.396Z,7.77
2018-05-27T05:21:29.900Z,6.27
2018-05-27T05:26:32.396Z,6.30
2018-05-27T05:31:34.901Z,7.20
2018-05-27T05:36:38.178Z,6.30
2018-05-27T05:41:40.680Z,6.97
2018-05-27T05:46:43.179Z,6.40
2018-05-27T05:51:45.692Z,6.10
2018-05-27T05:56:48.955Z,7.10
2018-05-27T06:01:51.463Z,6.60
2018-05-27T06:06:53.960Z,6.87
2018-05-27T06:11:56.460Z,7.07
2018-05-27T06:16:58.959Z,6.20
2018-05-27T06:22:01.468Z,6.07
2018-05-27T06:27:04.740Z,6.63
2018-05-27T06:32:07.301Z,6.40
2018-05-27T06:37:09.752Z,6.27
2018-05-27T06:42:12.248Z,6.60
2018-05-27T06:47:15.708Z,6.40
2018-05-27T06:52:18.200Z,6.30
2018-05-27T06:57:20.713Z,8.33
2018-05-27T07:02:23.200Z,5.80
2018-05-27T07:07:25.700Z,7.33
2018-05-27T07:12:28.204Z,7.33
2018-05-27T07:17:30.700Z,6.90
2018-05-27T07:22:33.205Z,6.30
2018-05-27T07:27:35.707Z,7.20
2018-05-27T07:32:38.976Z,6.50
2018-05-27T07:37:41.479Z,5.93
2018-05-27T07:42:43.991Z,6.30
2018-05-27T07:47:46.474Z,6.63
2018-05-27T07:52:48.964Z,6.17
2018-05-27T07:57:51.456Z,4.67
2018-05-27T08:02:53.948Z,5.90
2018-05-27T08:07:56.448Z,5.67
2018-05-27T08:12:58.957Z,6.23
2018-05-27T08:18:02.232Z,5.40
2018-05-27T08:23:04.721Z,6.17
2018-05-27T08:28:07.236Z,6.07
2018-05-27T08:33:09.732Z,7.10
2018-05-27T08:38:12.220Z,5.67
2018-05-27T08:43:14.723Z,5.57
2018-05-27T08:48:18.004Z,5.30
2018-05-27T08:53:20.544Z,5.80
2018-05-27T08:58:23.007Z,6.47
2018-05-27T09:03:25.516Z,6.07
2018-05-27T09:08:28.783Z,5.50
2018-05-27T09:13:31.290Z,5.57
2018-05-27T09:18:33.787Z,5.73
2018-05-27T09:23:36.288Z,6.03
2018-05-27T09:28:38.788Z,5.40
2018-05-27T09:33:41.280Z,6.07
2018-05-27T09:38:43.783Z,6.20
2018-05-27T09:43:47.064Z,6.07
2018-05-27T09:48:49.548Z,5.90
2018-05-27T09:53:52.045Z,4.90
2018-05-27T09:58:54.547Z,5.90
2018-05-27T10:03:57.035Z,5.50
2018-05-27T10:08:59.545Z,6.00
2018-05-27T10:14:02.057Z,5.00
2018-05-27T10:19:05.344Z,5.10
2018-05-27T10:24:07.824Z,5.67
2018-05-27T10:29:10.327Z,5.90
2018-05-27T10:34:12.831Z,5.67
2018-05-27T10:39:15.380Z,5.20
2018-05-27T10:44:17.828Z,4.63
2018-05-27T10:49:21.105Z,4.73
2018-05-27T10:54:23.595Z,5.07
2018-05-27T10:59:26.096Z,5.87
2018-05-27T11:04:28.601Z,5.60
2018-05-27T11:09:31.100Z,4.23
2018-05-27T11:14:33.640Z,5.27
2018-05-27T11:19:36.865Z,5.70
2018-05-27T11:24:39.359Z,5.23
2018-05-27T11:29:41.865Z,5.27
2018-05-27T11:34:44.356Z,5.03
2018-05-27T11:39:46.844Z,5.30
2018-05-27T11:44:49.339Z,4.70
2018-05-27T11:49:51.840Z,4.40
2018-05-27T11:54:54.340Z,3.80
2018-05-27T11:59:56.848Z,4.67
2018-05-27T12:04:59.345Z,4.07
2018-05-27T12:10:02.624Z,4.90
2018-05-27T12:15:05.133Z,4.30
2018-05-27T12:20:07.627Z,4.77
2018-05-27T12:25:10.132Z,4.40
2018-05-27T12:30:13.388Z,4.63
2018-05-27T12:35:15.898Z,4.63
2018-05-27T12:40:18.388Z,4.07
2018-05-27T12:45:20.905Z,4.97
2018-05-27T12:50:23.396Z,5.00
2018-05-27T12:55:25.895Z,4.50
2018-05-27T13:00:28.397Z,5.17
2018-05-27T13:05:31.655Z,5.43
2018-05-27T13:10:34.152Z,4.97
2018-05-27T13:15:36.661Z,5.10
2018-05-27T13:20:39.166Z,5.10
2018-05-27T13:25:41.660Z,4.67
2018-05-27T13:30:44.168Z,6.17
2018-05-27T13:35:46.665Z,5.40
2018-05-27T13:40:49.973Z,5.83
2018-05-27T13:45:52.442Z,4.70
2018-05-27T13:50:54.926Z,4.47
2018-05-27T13:55:57.416Z,5.60
2018-05-27T14:00:59.914Z,5.10
2018-05-27T14:06:02.445Z,5.47
2018-05-27T14:11:04.892Z,5.30
2018-05-27T14:16:07.385Z,6.00
2018-05-27T14:21:09.876Z,6.47
2018-05-27T14:26:12.365Z,5.67
2018-05-27T14:31:14.858Z,6.37
2018-05-27T14:36:17.352Z,5.40
2018-05-27T14:41:19.836Z,5.33
2018-05-27T14:46:22.339Z,5.33
2018-05-27T14:51:24.828Z,5.80
2018-05-27T14:56:27.319Z,4.20
2018-05-27T15:01:29.817Z,4.80
2018-05-27T15:06:32.325Z,3.73
2018-05-27T15:11:34.820Z,3.90
2018-05-27T15:16:37.308Z,3.50
2018-05-27T15:21:39.795Z,3.10
2018-05-27T15:26:42.287Z,3.63
2018-05-27T15:31:44.776Z,3.23
2018-05-27T15:36:47.285Z,2.87
2018-05-27T15:41:49.784Z,3.10
2018-05-27T15:46:52.271Z,2.97
2018-05-27T15:51:54.761Z,3.60
2018-05-27T15:56:57.248Z,3.47
2018-05-27T16:01:59.736Z,3.30
2018-05-27T16:07:02.231Z,4.07
2018-05-27T16:12:04.720Z,3.27
2018-05-27T16:17:07.212Z,3.77
2018-05-27T16:22:09.704Z,4.00
2018-05-27T16:27:12.192Z,3.60
2018-05-27T16:32:14.684Z,3.90
2018-05-27T16:37:17.856Z,4.00
2018-05-27T16:42:20.348Z,4.10
2018-05-27T16:47:22.843Z,4.33
2018-05-27T16:52:25.335Z,3.70
2018-05-27T16:57:29.626Z,3.70
2018-05-27T17:02:32.117Z,3.47
2018-05-27T17:07:34.608Z,3.63
2018-05-27T17:12:37.106Z,3.93
2018-05-27T17:17:39.592Z,3.40
2018-05-27T17:22:42.088Z,3.73
2018-05-27T17:27:44.571Z,3.90
2018-05-27T17:32:47.077Z,4.20
2018-05-27T17:37:49.572Z,3.90
2018-05-27T17:42:52.064Z,4.03
2018-05-27T17:47:56.885Z,4.63
2018-05-27T17:52:59.381Z,3.57
2018-05-27T17:58:01.876Z,3.87
2018-05-27T18:03:04.369Z,4.60
2018-05-27T18:08:06.856Z,4.53
2018-05-27T18:13:09.352Z,4.67
2018-05-27T18:18:11.837Z,3.97
2018-05-27T18:23:14.340Z,4.53
2018-05-27T18:28:16.827Z,4.10
2018-05-27T18:33:19.320Z,4.40
2018-05-27T18:38:21.816Z,4.47
2018-05-27T18:43:24.312Z,4.47
2018-05-27T18:48:26.804Z,5.10
2018-05-27T18:53:29.296Z,4.20
2018-05-27T18:58:31.784Z,3.97
2018-05-27T19:03:34.272Z,4.40
2018-05-27T19:08:36.768Z,4.40
2018-05-27T19:13:39.253Z,3.80
2018-05-27T19:18:41.744Z,5.30
2018-05-27T19:23:44.236Z,4.93
2018-05-27T19:28:46.729Z,3.80
2018-05-27T19:33:49.211Z,4.43
2018-05-27T19:38:51.700Z,4.37
2018-05-27T19:43:54.191Z,3.63
2018-05-27T19:48:56.732Z,4.30
2018-05-27T19:53:59.254Z,3.80
2018-05-27T19:59:02.512Z,4.20
2018-05-27T20:04:05.013Z,3.80
2018-05-27T20:09:07.504Z,3.93
2018-05-27T20:14:09.992Z,4.63
2018-05-27T20:19:12.485Z,4.63
2018-05-27T20:24:14.985Z,4.07
2018-05-27T20:29:17.472Z,4.53
2018-05-27T20:34:19.964Z,4.03
2018-05-27T20:39:22.479Z,4.17
2018-05-27T20:44:24.972Z,4.03
2018-05-27T20:49:27.487Z,3.30
2018-05-27T20:54:29.979Z,4.63
2018-05-27T20:59:33.257Z,4.47
2018-05-27T21:04:35.757Z,4.73
2018-05-27T21:09:38.268Z,4.73
2018-05-27T21:14:41.552Z,4.30
2018-05-27T21:19:44.037Z,3.97
2018-05-27T21:24:46.560Z,4.10
2018-05-27T21:29:49.068Z,3.80
2018-05-27T21:34:52.340Z,4.37
2018-05-27T21:39:54.856Z,3.37
2018-05-27T21:50:23.490Z,4.67
2018-05-27T21:55:25.992Z,4.03
2018-05-27T22:00:28.500Z,4.20
2018-05-27T22:05:31.773Z,4.77
2018-05-27T22:10:34.276Z,4.03
2018-05-27T22:15:36.780Z,4.90
2018-05-27T22:20:39.279Z,4.17
2018-05-27T22:25:41.804Z,5.00
2018-05-27T22:30:44.308Z,5.63
2018-05-27T22:35:46.800Z,4.77
2018-05-27T22:40:49.304Z,4.33
2018-05-27T22:45:51.828Z,5.20
2018-05-27T22:50:54.326Z,5.00
2018-05-27T22:55:56.829Z,4.97
2018-05-27T23:00:59.332Z,5.30
2018-05-27T23:06:02.597Z,4.80
2018-05-27T23:11:05.099Z,4.73
2018-05-27T23:16:07.616Z,5.87
2018-05-27T23:21:10.139Z,5.50
2018-05-27T23:26:12.648Z,5.67
2018-05-27T23:31:15.136Z,5.10
2018-05-27T23:36:17.640Z,4.97
2018-05-27T23:41:20.144Z,5.63
2018-05-27T23:46:22.628Z,5.50
2018-05-27T23:51:25.133Z,5.80
2018-05-27T23:56:27.632Z,6.50
